GCTS/TFS METAR and TAF weather

Enter ICAO airport designator
Station Type Date Time Source
GCTS METAR 2021/03/08 15:00 UTC NOAA

GCTS 081500Z 19006KT 140V250 9999 FEW025 BKN042 21/14 Q1019 NOSIG


Station Type Date Time Source
GCTS Decoded METAR 2021/03/08 15:00 UTC NOAA

Tenerife Sur, Spain (GCTS) 28-03N 016-34W 77M
Mar 08, 2021 - 10:00 AM EST / 2021.03.08 1500 UTC
Wind: from the S (190 degrees) at 7 MPH (6 KT) (direction variable):0
Visibility: greater than 7 mile(s):0
Sky conditions: mostly cloudy
Temperature: 69 F (21 C)
Dew Point: 57 F (14 C)
Relative Humidity: 64%
Pressure (altimeter): 30.09 in. Hg (1019 hPa)
ob: GCTS 081500Z 19006KT 140V250 9999 FEW025 BKN042 21/14 Q1019 NOSIG
cycle: 15

Station Type Date Time Source
GCTS TAF 2021/03/08 15:27 UTC NOAA

TAF GCTS 081400Z 0815/0915 15007KT 9999 FEW025 TX21/0914Z TN15/0907Z PROB30
TEMPO 0815/0821 21010KT
BECMG 0908/0910 08018KT PROB40
TEMPO 0912/0915 08020G30KT

Example: see airport list